createdAt,value
2022-11-30T00:00:12.908Z,28.03
2022-11-30T00:02:39.156Z,27.60
2022-11-30T00:05:06.222Z,28.03
2022-11-30T00:07:33.467Z,26.97
2022-11-30T00:09:59.782Z,27.47
2022-11-30T00:12:28.087Z,27.63
2022-11-30T00:14:54.340Z,27.33
2022-11-30T00:17:20.518Z,28.50
2022-11-30T00:19:46.693Z,28.07
2022-11-30T00:22:12.859Z,27.23
2022-11-30T00:24:38.987Z,27.97
2022-11-30T00:27:05.198Z,29.20
2022-11-30T00:29:31.990Z,28.03
2022-11-30T00:31:58.124Z,26.50
2022-11-30T00:34:24.327Z,23.97
2022-11-30T00:36:50.521Z,25.67
2022-11-30T00:39:16.693Z,24.70
2022-11-30T00:41:43.022Z,27.63
2022-11-30T00:44:09.167Z,25.07
2022-11-30T00:46:35.996Z,25.47
2022-11-30T00:49:02.212Z,25.13
2022-11-30T00:51:28.352Z,23.77
2022-11-30T00:53:54.624Z,24.30
2022-11-30T00:56:20.762Z,24.13
2022-11-30T00:58:47.031Z,23.30
2022-11-30T01:01:13.201Z,24.20
2022-11-30T01:03:40.304Z,25.03
2022-11-30T01:06:08.719Z,23.10
2022-11-30T01:08:35.640Z,24.00
2022-11-30T01:11:07.367Z,24.60
2022-11-30T01:13:33.485Z,24.83
2022-11-30T01:15:59.965Z,24.83
2022-11-30T01:18:26.114Z,24.57
2022-11-30T01:20:52.917Z,24.43
2022-11-30T01:23:19.063Z,24.67
2022-11-30T01:25:53.528Z,26.20
2022-11-30T01:28:19.690Z,25.23
2022-11-30T01:30:55.686Z,24.43
2022-11-30T01:33:21.901Z,25.47
2022-11-30T01:35:48.021Z,26.13
2022-11-30T01:38:14.999Z,24.77
2022-11-30T01:40:49.378Z,26.00
2022-11-30T01:43:19.810Z,25.40
2022-11-30T01:45:47.804Z,25.50
2022-11-30T01:48:14.027Z,26.33
2022-11-30T01:50:40.291Z,26.40
2022-11-30T01:53:08.987Z,24.33
2022-11-30T01:55:38.819Z,26.93
2022-11-30T01:58:07.669Z,25.50
2022-11-30T02:00:34.040Z,25.10
2022-11-30T02:03:02.239Z,26.00
2022-11-30T02:05:28.752Z,26.20
2022-11-30T02:07:55.437Z,26.03
2022-11-30T02:10:25.038Z,26.87
2022-11-30T02:13:18.298Z,27.20
2022-11-30T02:15:49.664Z,26.43
2022-11-30T02:18:20.974Z,28.17
2022-11-30T02:20:59.053Z,27.00
2022-11-30T02:23:44.351Z,28.10
2022-11-30T02:26:22.807Z,28.07
2022-11-30T02:29:03.438Z,29.23
2022-11-30T02:31:33.444Z,29.10
2022-11-30T02:34:00.238Z,29.93
2022-11-30T02:36:26.839Z,30.27
2022-11-30T02:38:53.174Z,30.43
2022-11-30T02:41:19.352Z,30.33
2022-11-30T02:43:45.569Z,32.63
2022-11-30T02:46:16.151Z,32.30
2022-11-30T02:48:43.927Z,33.27
2022-11-30T02:51:12.822Z,33.40
2022-11-30T02:53:39.113Z,32.80
2022-11-30T02:56:05.482Z,32.40
2022-11-30T02:58:31.717Z,35.13
2022-11-30T03:00:57.910Z,34.83
2022-11-30T03:03:24.667Z,34.43
2022-11-30T03:05:51.361Z,34.23
2022-11-30T03:08:17.525Z,35.07
2022-11-30T03:10:43.667Z,33.37
2022-11-30T03:13:09.849Z,35.17
2022-11-30T03:15:35.996Z,33.43
2022-11-30T03:18:02.306Z,33.47
2022-11-30T03:20:29.320Z,35.13
2022-11-30T03:22:59.049Z,34.67
2022-11-30T03:25:25.191Z,33.70
2022-11-30T03:27:51.355Z,34.47
2022-11-30T03:30:17.791Z,34.00
2022-11-30T03:32:43.942Z,32.53
2022-11-30T03:35:10.149Z,31.17
2022-11-30T03:37:37.003Z,32.20
2022-11-30T03:40:03.576Z,30.53
2022-11-30T03:42:29.679Z,30.80
2022-11-30T03:44:55.882Z,28.90
2022-11-30T03:47:22.029Z,31.30
2022-11-30T03:49:48.222Z,30.97
2022-11-30T03:52:14.405Z,30.60
2022-11-30T03:54:41.189Z,30.03
2022-11-30T03:57:07.401Z,31.87
2022-11-30T03:59:33.544Z,35.40
2022-11-30T04:01:59.732Z,35.43
2022-11-30T04:04:25.938Z,37.77
2022-11-30T04:06:52.094Z,34.10
2022-11-30T04:09:18.261Z,37.07
2022-11-30T04:11:45.059Z,36.70
2022-11-30T04:14:11.381Z,38.33
2022-11-30T04:16:37.776Z,37.33
2022-11-30T04:19:04.034Z,39.60
2022-11-30T04:21:30.195Z,38.63
2022-11-30T04:23:56.369Z,41.13
2022-11-30T04:26:22.522Z,40.10
2022-11-30T04:28:49.337Z,39.17
2022-11-30T04:31:17.521Z,40.53
2022-11-30T04:33:43.855Z,41.33
2022-11-30T04:36:16.646Z,40.43
2022-11-30T04:38:42.857Z,41.47
2022-11-30T04:41:09.098Z,43.63
2022-11-30T04:43:35.323Z,43.87
2022-11-30T04:46:02.389Z,41.80
2022-11-30T04:48:28.579Z,43.23
2022-11-30T04:51:00.021Z,43.00
2022-11-30T04:53:26.210Z,42.87
2022-11-30T04:55:52.424Z,42.93
2022-11-30T04:58:18.600Z,39.73
2022-11-30T05:00:44.910Z,34.67
2022-11-30T05:03:11.771Z,32.87
2022-11-30T05:05:38.165Z,30.10
2022-11-30T05:08:04.473Z,28.83
2022-11-30T05:10:33.039Z,27.53
2022-11-30T05:12:59.261Z,29.63
2022-11-30T05:15:25.462Z,30.37
2022-11-30T05:17:52.529Z,28.33
2022-11-30T05:20:19.376Z,25.63
2022-11-30T05:22:45.580Z,29.00
2022-11-30T05:25:11.873Z,28.97
2022-11-30T05:27:40.423Z,28.50
2022-11-30T05:30:08.714Z,28.67
2022-11-30T05:32:35.052Z,27.83
2022-11-30T05:35:01.213Z,26.80
2022-11-30T05:37:28.117Z,28.40
2022-11-30T05:39:54.269Z,27.60
2022-11-30T05:42:20.613Z,26.83
2022-11-30T05:44:47.540Z,27.03
2022-11-30T05:47:14.148Z,26.07
2022-11-30T05:49:40.328Z,26.77
2022-11-30T05:52:06.471Z,25.30
2022-11-30T05:54:33.947Z,26.53
2022-11-30T05:57:00.224Z,24.63
2022-11-30T05:59:26.402Z,25.80
2022-11-30T06:01:52.831Z,23.97
2022-11-30T06:04:19.277Z,24.73
2022-11-30T06:06:45.921Z,23.83
2022-11-30T06:09:12.166Z,25.10
2022-11-30T06:11:38.958Z,24.27
2022-11-30T06:14:05.197Z,24.07
2022-11-30T06:16:31.548Z,22.40
2022-11-30T06:18:57.761Z,22.53
2022-11-30T06:21:24.809Z,21.73
2022-11-30T06:23:51.460Z,21.50
2022-11-30T06:26:17.607Z,22.83
2022-11-30T06:28:48.232Z,22.57
2022-11-30T06:31:15.784Z,22.83
2022-11-30T06:33:42.058Z,22.90
2022-11-30T06:36:08.983Z,20.40
2022-11-30T06:38:35.138Z,21.77
2022-11-30T06:41:05.306Z,22.73
2022-11-30T06:43:33.454Z,22.63
2022-11-30T06:46:01.688Z,21.47
2022-11-30T06:48:27.960Z,23.63
2022-11-30T06:50:54.693Z,22.60
2022-11-30T06:53:20.936Z,22.17
2022-11-30T06:55:47.151Z,23.33
2022-11-30T06:58:13.609Z,21.87
2022-11-30T07:00:40.269Z,23.13
2022-11-30T07:03:07.109Z,21.17
2022-11-30T07:05:34.644Z,21.63
2022-11-30T07:08:00.838Z,21.73
2022-11-30T07:10:27.255Z,21.13
2022-11-30T07:12:53.515Z,22.50
2022-11-30T07:15:19.667Z,21.87
2022-11-30T07:17:45.887Z,22.83
2022-11-30T07:20:13.118Z,20.77
2022-11-30T07:22:39.288Z,22.17
2022-11-30T07:25:24.215Z,22.87
2022-11-30T07:27:50.374Z,22.47
2022-11-30T07:30:17.138Z,22.57
2022-11-30T07:32:43.279Z,21.63
2022-11-30T07:35:09.511Z,22.00
2022-11-30T07:37:36.369Z,21.47
2022-11-30T07:40:03.547Z,20.50
2022-11-30T07:42:29.925Z,22.50
2022-11-30T07:44:59.021Z,20.97
2022-11-30T07:47:25.608Z,21.13
2022-11-30T07:49:51.823Z,22.60
2022-11-30T07:52:17.982Z,21.93
2022-11-30T07:54:45.093Z,21.70
2022-11-30T07:57:11.670Z,22.80
2022-11-30T07:59:37.811Z,22.03
2022-11-30T08:02:04.032Z,21.77
2022-11-30T08:04:30.367Z,21.63
2022-11-30T08:06:56.586Z,21.93
2022-11-30T08:09:22.792Z,22.40
2022-11-30T08:11:49.904Z,22.53
2022-11-30T08:14:16.075Z,22.90
2022-11-30T08:16:43.309Z,24.60
2022-11-30T08:19:09.775Z,22.37
2022-11-30T08:21:37.287Z,22.20
2022-11-30T08:24:03.953Z,23.20
2022-11-30T08:26:32.102Z,23.20
2022-11-30T08:28:59.869Z,23.83
2022-11-30T08:31:28.156Z,24.83
2022-11-30T08:33:56.088Z,24.23
2022-11-30T08:36:23.059Z,23.23
2022-11-30T08:38:49.370Z,23.73
2022-11-30T08:41:18.296Z,23.77
2022-11-30T08:43:44.803Z,24.23
2022-11-30T08:46:42.430Z,23.43
2022-11-30T08:49:19.956Z,24.10
2022-11-30T08:54:32.139Z,25.83
2022-11-30T08:56:58.423Z,24.53
2022-11-30T08:59:24.730Z,24.60
2022-11-30T09:01:51.506Z,26.43
2022-11-30T09:04:17.701Z,24.00
2022-11-30T09:06:43.883Z,26.03
2022-11-30T09:09:10.086Z,30.83
2022-11-30T09:11:36.191Z,29.50
2022-11-30T09:14:04.035Z,31.10
2022-11-30T09:16:31.027Z,32.03
2022-11-30T09:18:57.891Z,32.63
2022-11-30T09:21:24.723Z,33.03
2022-11-30T09:23:51.642Z,34.83
2022-11-30T09:26:19.416Z,34.43
2022-11-30T09:28:47.234Z,32.37
2022-11-30T09:31:15.242Z,34.33
2022-11-30T09:33:41.864Z,34.67
2022-11-30T09:36:10.260Z,34.30
2022-11-30T09:38:36.891Z,33.10
2022-11-30T09:41:05.656Z,34.73
2022-11-30T09:43:37.478Z,40.00
2022-11-30T09:46:05.798Z,42.00
2022-11-30T09:48:51.087Z,45.27
2022-11-30T09:51:20.485Z,41.20
2022-11-30T09:53:50.674Z,42.77
2022-11-30T09:56:21.231Z,42.83
2022-11-30T09:58:51.057Z,40.77
2022-11-30T10:01:18.972Z,40.47
2022-11-30T10:03:45.484Z,39.90
2022-11-30T10:06:20.707Z,39.27
2022-11-30T10:08:55.370Z,41.33
2022-11-30T10:11:33.758Z,41.03
2022-11-30T10:14:17.275Z,38.33
2022-11-30T10:16:49.862Z,39.40
2022-11-30T10:19:26.860Z,41.00
2022-11-30T10:22:01.428Z,39.30
2022-11-30T10:24:33.878Z,39.90
2022-11-30T10:27:06.220Z,40.50
2022-11-30T10:29:34.761Z,39.03
2022-11-30T10:32:13.613Z,40.00
2022-11-30T10:34:40.772Z,37.40
2022-11-30T10:37:12.698Z,40.17
2022-11-30T10:39:43.363Z,38.33
2022-11-30T10:42:12.477Z,39.77
2022-11-30T10:44:40.514Z,38.17
2022-11-30T10:47:12.911Z,40.33
2022-11-30T10:49:48.401Z,37.10
2022-11-30T10:52:16.982Z,38.40
2022-11-30T10:54:43.152Z,36.80
2022-11-30T10:57:09.522Z,36.83
2022-11-30T10:59:40.767Z,34.47
2022-11-30T11:02:33.967Z,34.77
2022-11-30T11:05:08.834Z,34.20
2022-11-30T11:07:44.888Z,33.37
2022-11-30T11:10:13.029Z,33.60
2022-11-30T11:12:39.240Z,34.03
2022-11-30T11:15:10.088Z,33.07
2022-11-30T11:17:36.236Z,31.27
2022-11-30T11:20:02.565Z,30.17
2022-11-30T11:22:30.876Z,30.90
2022-11-30T11:25:10.368Z,32.40
2022-11-30T11:27:39.941Z,30.07
2022-11-30T11:30:16.279Z,33.10
2022-11-30T11:32:57.445Z,31.53
2022-11-30T11:35:32.707Z,30.83
2022-11-30T11:37:58.926Z,29.67
2022-11-30T11:40:26.043Z,31.00
2022-11-30T11:42:53.618Z,30.80
2022-11-30T11:45:22.078Z,31.33
2022-11-30T11:47:58.043Z,30.83
2022-11-30T11:50:58.262Z,29.97
2022-11-30T11:53:22.081Z,28.97
2022-11-30T11:55:51.819Z,28.93
2022-11-30T11:58:24.049Z,29.43
2022-11-30T12:00:57.638Z,28.67
2022-11-30T12:03:38.702Z,28.73
2022-11-30T12:06:09.338Z,28.03
2022-11-30T12:08:40.805Z,29.33
2022-11-30T12:11:11.388Z,27.80
2022-11-30T12:13:38.887Z,28.97
2022-11-30T12:16:14.259Z,28.13
2022-11-30T12:18:46.661Z,28.40
2022-11-30T12:21:14.861Z,27.97
2022-11-30T12:23:54.063Z,28.83
2022-11-30T12:26:29.164Z,28.10
2022-11-30T12:29:17.647Z,27.83
2022-11-30T12:31:53.154Z,27.33
2022-11-30T12:34:25.312Z,28.23
2022-11-30T12:36:55.669Z,26.63
2022-11-30T12:39:29.799Z,28.37
2022-11-30T12:42:00.323Z,27.50
2022-11-30T12:44:42.386Z,27.70
2022-11-30T12:47:21.391Z,27.10
2022-11-30T12:49:59.156Z,27.80
2022-11-30T12:52:34.360Z,26.40
2022-11-30T12:55:07.384Z,27.70
2022-11-30T12:57:37.395Z,27.37
2022-11-30T13:00:08.506Z,26.67
2022-11-30T13:02:57.900Z,26.93
2022-11-30T13:05:26.425Z,27.40
2022-11-30T13:07:57.774Z,27.50
2022-11-30T13:10:28.407Z,28.73
2022-11-30T13:12:55.871Z,27.83
2022-11-30T13:15:24.437Z,28.77
2022-11-30T13:17:51.364Z,28.43
2022-11-30T13:20:23.271Z,29.37
2022-11-30T13:22:52.631Z,30.93
2022-11-30T13:25:59.330Z,30.63
2022-11-30T13:28:17.096Z,29.13
2022-11-30T13:30:48.411Z,28.93
2022-11-30T13:33:47.777Z,29.83
2022-11-30T13:36:31.601Z,28.47
2022-11-30T13:39:21.068Z,30.40
2022-11-30T13:41:48.221Z,29.20
2022-11-30T13:44:30.059Z,28.47
2022-11-30T13:46:56.656Z,28.23
2022-11-30T13:49:26.551Z,29.43
2022-11-30T13:52:20.770Z,29.27
2022-11-30T13:54:40.210Z,27.60
2022-11-30T13:57:31.504Z,27.33
2022-11-30T13:59:58.962Z,28.17
2022-11-30T14:03:12.968Z,28.50
2022-11-30T14:05:40.378Z,27.93
2022-11-30T14:08:15.183Z,28.23
2022-11-30T14:10:42.820Z,27.20
2022-11-30T14:13:30.805Z,28.97
2022-11-30T14:15:59.750Z,29.50
2022-11-30T14:18:39.521Z,28.67
2022-11-30T14:21:14.707Z,28.13
2022-11-30T14:23:46.498Z,28.50
2022-11-30T14:26:14.716Z,26.90
2022-11-30T14:28:44.253Z,28.40
2022-11-30T14:31:16.123Z,29.93
2022-11-30T14:33:45.881Z,28.37
2022-11-30T14:36:12.017Z,29.10
2022-11-30T14:38:40.644Z,28.30
2022-11-30T14:41:20.376Z,29.13
2022-11-30T14:44:04.343Z,29.60
2022-11-30T14:46:34.248Z,29.57
2022-11-30T14:49:12.843Z,29.80
2022-11-30T14:51:39.225Z,29.63
2022-11-30T14:54:13.053Z,29.07
2022-11-30T14:56:42.548Z,28.80
2022-11-30T14:59:23.271Z,29.73
2022-11-30T15:01:55.669Z,30.70
2022-11-30T15:04:22.287Z,31.40
2022-11-30T15:06:48.480Z,30.07
2022-11-30T15:09:17.257Z,29.10
2022-11-30T15:11:45.233Z,30.70
2022-11-30T15:14:11.411Z,27.30
2022-11-30T15:16:37.846Z,31.47
2022-11-30T15:19:19.105Z,29.77
2022-11-30T15:21:46.570Z,31.60
2022-11-30T15:24:12.880Z,32.10
2022-11-30T15:26:50.394Z,28.73
2022-11-30T15:29:22.178Z,27.73
2022-11-30T15:31:49.832Z,27.60
2022-11-30T15:34:21.059Z,28.67
2022-11-30T15:36:47.615Z,27.50
2022-11-30T15:39:18.165Z,32.53
2022-11-30T15:41:44.351Z,28.50
2022-11-30T15:44:23.211Z,30.50
2022-11-30T15:46:56.017Z,30.53
2022-11-30T15:49:25.899Z,26.43
2022-11-30T15:52:01.389Z,27.37
2022-11-30T15:54:48.006Z,27.97
2022-11-30T15:57:14.900Z,26.67
2022-11-30T15:59:41.160Z,27.00
2022-11-30T16:02:24.407Z,27.67
2022-11-30T16:05:25.075Z,27.93
2022-11-30T16:07:53.679Z,26.53
2022-11-30T16:10:23.145Z,26.40
2022-11-30T16:12:50.965Z,26.60
2022-11-30T16:15:19.257Z,28.40
2022-11-30T16:17:45.469Z,29.57
2022-11-30T16:20:13.284Z,28.93
2022-11-30T16:22:41.073Z,27.57
2022-11-30T16:25:12.169Z,27.97
2022-11-30T16:27:38.342Z,29.00
2022-11-30T16:30:05.843Z,28.47
2022-11-30T16:32:32.020Z,28.70
2022-11-30T16:34:58.176Z,28.37
2022-11-30T16:37:24.405Z,29.60
2022-11-30T16:39:51.330Z,27.53
2022-11-30T16:42:17.680Z,26.90
2022-11-30T16:44:44.008Z,26.60
2022-11-30T16:47:10.228Z,26.97
2022-11-30T16:49:36.535Z,25.03
2022-11-30T16:52:03.867Z,25.63
2022-11-30T16:54:30.266Z,25.30
2022-11-30T16:56:57.240Z,25.47
2022-11-30T16:59:23.463Z,27.00
2022-11-30T17:01:52.132Z,26.67
2022-11-30T17:04:21.119Z,25.73
2022-11-30T17:06:50.582Z,25.70
2022-11-30T17:09:21.171Z,25.23
2022-11-30T17:11:49.686Z,26.77
2022-11-30T17:14:16.905Z,26.13
2022-11-30T17:16:43.140Z,26.13
2022-11-30T17:19:09.411Z,26.97
2022-11-30T17:21:37.808Z,27.67
2022-11-30T17:24:05.526Z,26.63
2022-11-30T17:26:31.739Z,27.57
2022-11-30T17:28:58.027Z,27.80
2022-11-30T17:31:24.843Z,27.63
2022-11-30T17:33:51.127Z,27.13
2022-11-30T17:36:18.342Z,26.83
2022-11-30T17:38:44.937Z,31.27
2022-11-30T17:41:18.583Z,29.30
2022-11-30T17:43:45.768Z,27.90
2022-11-30T17:46:14.881Z,29.57
2022-11-30T17:48:42.196Z,27.87
2022-11-30T17:51:08.630Z,27.90
2022-11-30T17:53:36.675Z,27.27
2022-11-30T17:56:03.686Z,28.80
2022-11-30T17:58:34.134Z,28.23
2022-11-30T18:01:01.575Z,27.70
2022-11-30T18:03:27.798Z,28.20
2022-11-30T18:05:59.490Z,28.30
2022-11-30T18:08:25.778Z,29.17
2022-11-30T18:10:52.025Z,27.93
2022-11-30T18:13:18.403Z,28.87
2022-11-30T18:15:44.568Z,30.30
2022-11-30T18:18:10.749Z,32.40
2022-11-30T18:20:37.036Z,31.47
2022-11-30T18:23:04.062Z,31.90
2022-11-30T18:25:30.234Z,31.00
2022-11-30T18:27:56.449Z,30.37
2022-11-30T18:30:22.685Z,30.40
2022-11-30T18:32:49.056Z,30.10
2022-11-30T18:35:15.556Z,29.70
2022-11-30T18:37:41.819Z,30.20
2022-11-30T18:40:10.593Z,30.43
2022-11-30T18:42:36.984Z,32.90
2022-11-30T18:45:03.803Z,33.60
2022-11-30T18:47:30.037Z,35.33
2022-11-30T18:49:56.565Z,33.87
2022-11-30T18:52:22.991Z,31.53
2022-11-30T18:54:50.024Z,34.10
2022-11-30T18:57:17.189Z,32.90
2022-11-30T18:59:44.317Z,31.97
2022-11-30T19:02:11.128Z,30.30
2022-11-30T19:04:38.004Z,30.73
2022-11-30T19:07:04.367Z,30.53
2022-11-30T19:09:30.988Z,30.03
2022-11-30T19:11:59.458Z,30.00
2022-11-30T19:14:26.503Z,28.57
2022-11-30T19:16:52.978Z,29.37
2022-11-30T19:19:20.912Z,29.20
2022-11-30T19:21:47.266Z,28.50
2022-11-30T19:24:14.338Z,29.93
2022-11-30T19:26:40.752Z,26.17
2022-11-30T19:29:07.593Z,26.37
2022-11-30T19:31:34.560Z,26.00
2022-11-30T19:34:04.625Z,24.43
2022-11-30T19:36:32.819Z,25.63
2022-11-30T19:38:59.796Z,24.47
2022-11-30T19:41:26.712Z,26.27
2022-11-30T19:44:02.778Z,24.63
2022-11-30T19:46:30.796Z,24.23
2022-11-30T19:49:00.267Z,24.73
2022-11-30T19:51:27.119Z,22.93
2022-11-30T19:53:54.958Z,21.17
2022-11-30T19:56:22.559Z,24.43
2022-11-30T19:58:49.163Z,21.77
2022-11-30T20:01:17.212Z,19.47
2022-11-30T20:03:43.663Z,20.00
2022-11-30T20:06:10.914Z,18.03
2022-11-30T20:08:37.674Z,19.03
2022-11-30T20:11:05.622Z,15.57
2022-11-30T20:13:31.964Z,14.57
2022-11-30T20:15:58.524Z,14.73
2022-11-30T20:18:25.254Z,15.80
2022-11-30T20:20:51.490Z,13.40
2022-11-30T20:23:18.515Z,13.97
2022-11-30T20:25:44.815Z,11.90
2022-11-30T20:28:12.739Z,12.93
2022-11-30T20:30:39.226Z,11.23
2022-11-30T20:33:05.453Z,11.77
2022-11-30T20:35:31.686Z,13.13
2022-11-30T20:37:57.841Z,12.23
2022-11-30T20:40:24.881Z,13.13
2022-11-30T20:42:51.206Z,13.30
2022-11-30T20:45:17.492Z,13.03
2022-11-30T20:47:43.636Z,14.33
2022-11-30T20:50:10.689Z,14.67
2022-11-30T20:52:36.872Z,15.07
2022-11-30T20:55:03.160Z,14.60
2022-11-30T20:57:30.027Z,15.00
2022-11-30T20:59:56.224Z,16.17
2022-11-30T21:02:22.525Z,15.50
2022-11-30T21:04:48.927Z,15.30
2022-11-30T21:07:15.823Z,15.00
2022-11-30T21:09:42.557Z,14.93
2022-11-30T21:12:08.988Z,13.43
2022-11-30T21:14:36.266Z,15.33
2022-11-30T21:17:02.488Z,14.97
2022-11-30T21:19:28.650Z,14.47
2022-11-30T21:21:55.809Z,15.10
2022-11-30T21:24:22.013Z,14.93
2022-11-30T21:26:48.239Z,14.67
2022-11-30T21:29:15.876Z,15.10
2022-11-30T21:31:43.559Z,14.10
2022-11-30T21:34:09.839Z,13.97
2022-11-30T21:36:36.035Z,14.57
2022-11-30T21:39:06.389Z,12.90
2022-11-30T21:41:33.782Z,13.70
2022-11-30T21:44:00.148Z,13.40
2022-11-30T21:46:26.565Z,12.80
2022-11-30T21:48:53.371Z,13.50
2022-11-30T21:51:21.549Z,13.47
2022-11-30T21:53:49.300Z,12.97
2022-11-30T21:56:17.710Z,13.77
2022-11-30T21:58:47.173Z,14.03
2022-11-30T22:01:14.826Z,13.67
2022-11-30T22:03:41.404Z,13.60
2022-11-30T22:06:09.541Z,13.63
2022-11-30T22:08:36.221Z,13.50
2022-11-30T22:11:03.419Z,12.73
2022-11-30T22:13:30.098Z,13.87
2022-11-30T22:15:57.602Z,13.37
2022-11-30T22:18:23.817Z,14.27
2022-11-30T22:20:49.957Z,14.63
2022-11-30T22:23:16.908Z,14.43
2022-11-30T22:25:43.082Z,13.67
2022-11-30T22:28:09.276Z,13.70
2022-11-30T22:30:35.453Z,14.40
2022-11-30T22:33:01.574Z,13.53
2022-11-30T22:35:27.714Z,15.03
2022-11-30T22:37:54.049Z,15.83
2022-11-30T22:40:20.859Z,15.33
2022-11-30T22:42:46.983Z,17.03
2022-11-30T22:45:13.116Z,16.63
2022-11-30T22:47:39.292Z,16.23
2022-11-30T22:50:06.643Z,17.17
2022-11-30T22:53:01.358Z,17.07
2022-11-30T22:55:19.173Z,15.63
2022-11-30T22:57:46.193Z,15.60
2022-11-30T23:00:13.457Z,14.67
2022-11-30T23:02:39.652Z,15.43
2022-11-30T23:05:06.309Z,14.93
2022-11-30T23:07:32.604Z,15.67
2022-11-30T23:09:58.754Z,14.27
2022-11-30T23:12:51.308Z,15.57
2022-11-30T23:15:12.458Z,15.27
2022-11-30T23:17:38.619Z,15.50
2022-11-30T23:20:06.138Z,16.30
2022-11-30T23:22:34.949Z,16.47
2022-11-30T23:25:01.146Z,17.13
2022-11-30T23:27:27.432Z,17.23
2022-11-30T23:29:53.561Z,17.17
2022-11-30T23:32:20.408Z,17.40
2022-11-30T23:34:50.546Z,17.07
2022-11-30T23:37:16.970Z,19.00
2022-11-30T23:39:43.148Z,19.33
2022-11-30T23:42:09.294Z,21.63
2022-11-30T23:44:35.473Z,19.67
2022-11-30T23:47:01.690Z,20.97
2022-11-30T23:49:28.488Z,20.43
2022-11-30T23:51:54.807Z,21.03
2022-11-30T23:54:20.960Z,20.77
2022-11-30T23:56:47.744Z,20.37
2022-11-30T23:59:13.937Z,22.80
